Airfield :
LOGIN :

Register | Disclaimer

   EN    FR    IT 

 










Legend :    VFR   Marginal VFR   IFR   Intensive IFR   Very Intensive IFR
Visi :
Ceiling :
>= 8 km
>= 3000ft
5 to 8 km
1000 to 3000 ft
1500m to 5 km
500 to 1000 ft
800 to 1500m
200 to 500 ft
< 800m
< 200 ft
Symbols :   Thunderstorms  Fog  Heavy snow  Heavy precipitations  Wind > 20 kt
SIGMETs :     Misc.  Thunderstorms  Icing  Turbulence  Mountain Waves  Volcanic Ashes






- Airport Elevation : 160 ft
- IATA code : LRT


LFRH - Lorient Lann Bihoue

CURRENT METAR :
  • 072230Z AUTO 23013KT 9999 OVC020 12/09 Q1016 BECMG 22015G30KT BKN009 OVC016

EXPIRED METARs :
  • 072200Z AUTO 23014KT 9999 OVC022 12/09 Q1017 BECMG 22015G30KT BKN009 OVC016
  • 072130Z AUTO 23012KT 9999 OVC024 11/09 Q1017 BECMG 22015G30KT BKN009 OVC016
  • 072100Z AUTO 23010KT 9999 OVC024 11/08 Q1017 BECMG 22015G30KT BKN009 OVC016
  • 072030Z AUTO 24012KT 9999 OVC022 11/08 Q1017 BECMG 22015G30KT BKN009 OVC016
  • 072000Z AUTO 22011KT 9999 OVC023 11/08 Q1017 BECMG 22015G30KT BKN009 OVC016

TAF TAF LFRH
Valid from the 07 at 18:00 until the 08 at 18:00 UTC


071700Z 0718/0818 24008KT 9999 SCT018 BKN028
BECMG 0721/0724 22015G30KT BKN009 OVC016
BECMG 0801/0803 2000 RADZ BKN002 OVC005
PROB40
TEMPO 0802/0805 1000 +DZ VV///
BECMG 0805/0808 27012KT 9999 NSW BKN020 BKN050
BECMG 0811/0814 27020G35KT
TEMPO 0815/0818 27025G40KT 4000 SHRA BKN015CB



MET'MAP, your aeronautical weather chart ! - Copyright ORBIFLY December 2007 - Disclaimer

ORBIFLY MET'MAP TEAM :

Programming & Development : Alexandra Zaïnal
Concept & original design : Baudouin d'Aumeries
Assistance for programming : Marc-Olivier Méhu
Technical & hardware support : Manuel Goepfert

Contact : metmap@orbifly.com




SOURCES & CREDITS :

   NOAA